sensor_id;sensor_type;location;lat;lon;timestamp;temperature;humidity
1155;DHT22;566;48.414;9.118;2023-07-20T00:00:02;18.40;84.70
1155;DHT22;566;48.414;9.118;2023-07-20T00:02:27;18.30;84.70
1155;DHT22;566;48.414;9.118;2023-07-20T00:04:53;18.30;84.40
1155;DHT22;566;48.414;9.118;2023-07-20T00:07:19;18.30;84.60
1155;DHT22;566;48.414;9.118;2023-07-20T00:09:44;18.30;84.00
1155;DHT22;566;48.414;9.118;2023-07-20T00:12:13;18.30;84.30
1155;DHT22;566;48.414;9.118;2023-07-20T00:14:39;18.10;84.00
1155;DHT22;566;48.414;9.118;2023-07-20T00:17:05;18.10;84.50
1155;DHT22;566;48.414;9.118;2023-07-20T00:19:30;18.00;84.90
1155;DHT22;566;48.414;9.118;2023-07-20T00:21:57;18.00;84.90
1155;DHT22;566;48.414;9.118;2023-07-20T00:24:23;18.10;85.20
1155;DHT22;566;48.414;9.118;2023-07-20T00:26:49;18.00;85.20
1155;DHT22;566;48.414;9.118;2023-07-20T00:29:15;17.90;85.70
1155;DHT22;566;48.414;9.118;2023-07-20T00:31:40;17.90;85.70
1155;DHT22;566;48.414;9.118;2023-07-20T00:34:06;17.90;85.40
1155;DHT22;566;48.414;9.118;2023-07-20T00:36:32;17.90;85.30
1155;DHT22;566;48.414;9.118;2023-07-20T00:38:58;17.90;83.90
1155;DHT22;566;48.414;9.118;2023-07-20T00:41:23;17.90;83.50
1155;DHT22;566;48.414;9.118;2023-07-20T00:43:50;17.90;84.00
1155;DHT22;566;48.414;9.118;2023-07-20T00:46:16;18.00;84.20
1155;DHT22;566;48.414;9.118;2023-07-20T00:48:42;18.00;84.60
1155;DHT22;566;48.414;9.118;2023-07-20T00:51:08;17.90;84.80
1155;DHT22;566;48.414;9.118;2023-07-20T00:53:34;17.90;84.80
1155;DHT22;566;48.414;9.118;2023-07-20T00:56:00;17.90;84.30
1155;DHT22;566;48.414;9.118;2023-07-20T00:58:26;17.90;83.50
1155;DHT22;566;48.414;9.118;2023-07-20T01:00:51;17.90;83.20
1155;DHT22;566;48.414;9.118;2023-07-20T01:03:17;17.80;82.40
1155;DHT22;566;48.414;9.118;2023-07-20T01:08:43;17.80;81.70
1155;DHT22;566;48.414;9.118;2023-07-20T01:11:38;17.80;81.90
1155;DHT22;566;48.414;9.118;2023-07-20T01:14:05;17.80;82.40
1155;DHT22;566;48.414;9.118;2023-07-20T01:16:30;17.80;82.60
1155;DHT22;566;48.414;9.118;2023-07-20T01:18:56;17.80;82.70
1155;DHT22;566;48.414;9.118;2023-07-20T01:21:28;17.70;82.70
1155;DHT22;566;48.414;9.118;2023-07-20T01:31:57;17.70;81.20
1155;DHT22;566;48.414;9.118;2023-07-20T01:34:23;17.70;81.30
1155;DHT22;566;48.414;9.118;2023-07-20T01:36:50;17.60;81.70
1155;DHT22;566;48.414;9.118;2023-07-20T01:39:19;17.60;81.90
1155;DHT22;566;48.414;9.118;2023-07-20T01:41:47;17.70;82.00
1155;DHT22;566;48.414;9.118;2023-07-20T01:44:13;17.60;82.50
1155;DHT22;566;48.414;9.118;2023-07-20T01:46:39;17.50;83.20
1155;DHT22;566;48.414;9.118;2023-07-20T01:49:04;17.60;83.10
1155;DHT22;566;48.414;9.118;2023-07-20T01:51:30;17.60;83.20
1155;DHT22;566;48.414;9.118;2023-07-20T01:53:55;17.40;83.30
1155;DHT22;566;48.414;9.118;2023-07-20T01:56:21;17.40;83.40
1155;DHT22;566;48.414;9.118;2023-07-20T01:58:46;17.40;83.70
1155;DHT22;566;48.414;9.118;2023-07-20T02:01:12;17.30;84.00
1155;DHT22;566;48.414;9.118;2023-07-20T02:03:38;17.20;83.90
1155;DHT22;566;48.414;9.118;2023-07-20T02:06:03;17.20;84.30
1155;DHT22;566;48.414;9.118;2023-07-20T02:08:29;17.10;84.20
1155;DHT22;566;48.414;9.118;2023-07-20T02:10:54;17.10;84.80
1155;DHT22;566;48.414;9.118;2023-07-20T02:13:20;17.00;84.90
1155;DHT22;566;48.414;9.118;2023-07-20T02:15:45;16.90;85.40
1155;DHT22;566;48.414;9.118;2023-07-20T02:18:12;16.90;85.40
1155;DHT22;566;48.414;9.118;2023-07-20T02:20:38;16.80;85.70
1155;DHT22;566;48.414;9.118;2023-07-20T02:23:05;16.80;85.70
1155;DHT22;566;48.414;9.118;2023-07-20T02:25:31;16.70;85.80
1155;DHT22;566;48.414;9.118;2023-07-20T02:27:59;16.80;85.50
1155;DHT22;566;48.414;9.118;2023-07-20T02:30:25;16.80;85.40
1155;DHT22;566;48.414;9.118;2023-07-20T02:32:51;16.80;85.50
1155;DHT22;566;48.414;9.118;2023-07-20T02:35:16;16.70;85.60
1155;DHT22;566;48.414;9.118;2023-07-20T02:37:42;16.70;85.60
1155;DHT22;566;48.414;9.118;2023-07-20T02:40:08;16.60;85.70
1155;DHT22;566;48.414;9.118;2023-07-20T02:42:34;16.60;86.40
1155;DHT22;566;48.414;9.118;2023-07-20T02:45:01;16.50;86.50
1155;DHT22;566;48.414;9.118;2023-07-20T02:47:27;16.40;87.00
1155;DHT22;566;48.414;9.118;2023-07-20T02:49:52;16.20;87.50
1155;DHT22;566;48.414;9.118;2023-07-20T02:52:18;16.10;88.00
1155;DHT22;566;48.414;9.118;2023-07-20T02:54:43;16.10;88.20
1155;DHT22;566;48.414;9.118;2023-07-20T02:57:09;16.10;88.50
1155;DHT22;566;48.414;9.118;2023-07-20T02:59:34;16.00;88.50
1155;DHT22;566;48.414;9.118;2023-07-20T03:02:00;15.90;89.10
1155;DHT22;566;48.414;9.118;2023-07-20T03:04:26;15.80;89.50
1155;DHT22;566;48.414;9.118;2023-07-20T03:06:52;15.70;89.90
1155;DHT22;566;48.414;9.118;2023-07-20T03:09:18;15.60;90.30
1155;DHT22;566;48.414;9.118;2023-07-20T03:11:43;15.60;90.70
1155;DHT22;566;48.414;9.118;2023-07-20T03:14:09;15.60;90.80
1155;DHT22;566;48.414;9.118;2023-07-20T03:16:36;15.50;90.90
1155;DHT22;566;48.414;9.118;2023-07-20T03:19:02;15.50;91.30
1155;DHT22;566;48.414;9.118;2023-07-20T03:21:27;15.50;91.40
1155;DHT22;566;48.414;9.118;2023-07-20T03:23:54;15.40;91.90
1155;DHT22;566;48.414;9.118;2023-07-20T03:26:19;15.40;92.00
1155;DHT22;566;48.414;9.118;2023-07-20T03:28:45;15.30;92.30
1155;DHT22;566;48.414;9.118;2023-07-20T03:31:20;15.20;92.00
1155;DHT22;566;48.414;9.118;2023-07-20T03:33:46;15.20;92.50
1155;DHT22;566;48.414;9.118;2023-07-20T03:36:11;15.10;93.30
1155;DHT22;566;48.414;9.118;2023-07-20T03:38:37;15.00;93.60
1155;DHT22;566;48.414;9.118;2023-07-20T03:41:03;14.80;94.30
1155;DHT22;566;48.414;9.118;2023-07-20T03:43:28;14.80;94.60
1155;DHT22;566;48.414;9.118;2023-07-20T03:45:54;14.80;94.90
1155;DHT22;566;48.414;9.118;2023-07-20T03:48:22;14.90;95.00
1155;DHT22;566;48.414;9.118;2023-07-20T03:50:53;14.90;94.70
1155;DHT22;566;48.414;9.118;2023-07-20T03:53:19;15.00;94.00
1155;DHT22;566;48.414;9.118;2023-07-20T03:55:46;15.00;93.80
1155;DHT22;566;48.414;9.118;2023-07-20T03:58:13;15.10;94.40
1155;DHT22;566;48.414;9.118;2023-07-20T04:00:39;15.10;94.60
1155;DHT22;566;48.414;9.118;2023-07-20T04:03:05;15.10;94.80
1155;DHT22;566;48.414;9.118;2023-07-20T04:05:31;15.00;94.60
1155;DHT22;566;48.414;9.118;2023-07-20T04:07:56;15.00;94.70
1155;DHT22;566;48.414;9.118;2023-07-20T04:10:22;15.00;94.60
1155;DHT22;566;48.414;9.118;2023-07-20T04:12:47;15.00;94.80
1155;DHT22;566;48.414;9.118;2023-07-20T04:15:13;15.10;94.50
1155;DHT22;566;48.414;9.118;2023-07-20T04:17:39;15.10;94.70
1155;DHT22;566;48.414;9.118;2023-07-20T04:20:07;15.20;94.70
1155;DHT22;566;48.414;9.118;2023-07-20T04:22:35;15.30;95.20
1155;DHT22;566;48.414;9.118;2023-07-20T04:25:01;15.40;95.10
1155;DHT22;566;48.414;9.118;2023-07-20T04:27:29;15.40;95.10
1155;DHT22;566;48.414;9.118;2023-07-20T04:29:55;15.40;95.20
1155;DHT22;566;48.414;9.118;2023-07-20T04:32:21;15.40;95.10
1155;DHT22;566;48.414;9.118;2023-07-20T04:34:46;15.40;94.90
1155;DHT22;566;48.414;9.118;2023-07-20T04:37:12;15.40;95.10
1155;DHT22;566;48.414;9.118;2023-07-20T04:39:37;15.30;94.70
1155;DHT22;566;48.414;9.118;2023-07-20T04:42:03;15.40;94.90
1155;DHT22;566;48.414;9.118;2023-07-20T04:44:29;15.50;95.00
1155;DHT22;566;48.414;9.118;2023-07-20T04:46:54;15.60;94.90
1155;DHT22;566;48.414;9.118;2023-07-20T04:49:20;15.60;95.00
1155;DHT22;566;48.414;9.118;2023-07-20T04:51:45;15.60;94.70
1155;DHT22;566;48.414;9.118;2023-07-20T04:54:11;15.60;94.30
1155;DHT22;566;48.414;9.118;2023-07-20T04:56:36;15.70;94.60
1155;DHT22;566;48.414;9.118;2023-07-20T04:59:02;15.80;94.80
1155;DHT22;566;48.414;9.118;2023-07-20T05:01:28;16.00;95.10
1155;DHT22;566;48.414;9.118;2023-07-20T05:03:53;16.20;93.90
1155;DHT22;566;48.414;9.118;2023-07-20T05:06:19;16.30;93.80
1155;DHT22;566;48.414;9.118;2023-07-20T05:08:45;16.40;94.00
1155;DHT22;566;48.414;9.118;2023-07-20T05:11:11;16.50;93.70
1155;DHT22;566;48.414;9.118;2023-07-20T05:13:37;16.60;93.20
1155;DHT22;566;48.414;9.118;2023-07-20T05:16:03;16.70;92.60
1155;DHT22;566;48.414;9.118;2023-07-20T05:18:28;16.90;92.10
1155;DHT22;566;48.414;9.118;2023-07-20T05:20:54;17.10;91.90
1155;DHT22;566;48.414;9.118;2023-07-20T05:23:21;17.40;90.20
1155;DHT22;566;48.414;9.118;2023-07-20T05:25:47;17.60;90.80
1155;DHT22;566;48.414;9.118;2023-07-20T05:28:18;17.80;90.70
1155;DHT22;566;48.414;9.118;2023-07-20T05:30:44;17.80;90.90
1155;DHT22;566;48.414;9.118;2023-07-20T05:33:10;18.00;89.00
1155;DHT22;566;48.414;9.118;2023-07-20T05:35:36;18.20;89.50
1155;DHT22;566;48.414;9.118;2023-07-20T05:38:02;18.40;89.40
1155;DHT22;566;48.414;9.118;2023-07-20T05:40:29;18.50;87.70
1155;DHT22;566;48.414;9.118;2023-07-20T05:42:55;18.60;83.70
1155;DHT22;566;48.414;9.118;2023-07-20T05:45:22;18.80;85.30
1155;DHT22;566;48.414;9.118;2023-07-20T05:47:48;19.00;83.90
1155;DHT22;566;48.414;9.118;2023-07-20T05:50:14;19.10;81.30
1155;DHT22;566;48.414;9.118;2023-07-20T05:52:40;19.10;82.40
1155;DHT22;566;48.414;9.118;2023-07-20T05:55:06;19.00;82.00
1155;DHT22;566;48.414;9.118;2023-07-20T05:57:32;18.70;82.70
1155;DHT22;566;48.414;9.118;2023-07-20T05:59:58;18.70;83.20
1155;DHT22;566;48.414;9.118;2023-07-20T06:02:23;18.90;83.20
1155;DHT22;566;48.414;9.118;2023-07-20T06:04:49;18.90;82.00
1155;DHT22;566;48.414;9.118;2023-07-20T06:07:15;18.90;81.90
1155;DHT22;566;48.414;9.118;2023-07-20T06:09:40;19.10;81.80
1155;DHT22;566;48.414;9.118;2023-07-20T06:12:07;19.10;81.50
1155;DHT22;566;48.414;9.118;2023-07-20T06:14:32;19.00;81.60
1155;DHT22;566;48.414;9.118;2023-07-20T06:16:58;19.00;81.80
1155;DHT22;566;48.414;9.118;2023-07-20T06:19:24;18.90;82.50
1155;DHT22;566;48.414;9.118;2023-07-20T06:21:50;19.10;81.50
1155;DHT22;566;48.414;9.118;2023-07-20T06:24:16;19.10;82.00
1155;DHT22;566;48.414;9.118;2023-07-20T06:26:42;19.40;81.40
1155;DHT22;566;48.414;9.118;2023-07-20T06:29:08;19.60;81.50
1155;DHT22;566;48.414;9.118;2023-07-20T06:31:37;19.50;82.30
1155;DHT22;566;48.414;9.118;2023-07-20T06:34:03;19.80;81.90
1155;DHT22;566;48.414;9.118;2023-07-20T06:36:29;20.10;81.20
1155;DHT22;566;48.414;9.118;2023-07-20T06:38:55;20.10;79.40
1155;DHT22;566;48.414;9.118;2023-07-20T06:41:21;20.10;79.50
1155;DHT22;566;48.414;9.118;2023-07-20T06:43:47;20.50;79.30
1155;DHT22;566;48.414;9.118;2023-07-20T06:46:13;20.50;78.70
1155;DHT22;566;48.414;9.118;2023-07-20T06:48:39;20.60;78.20
1155;DHT22;566;48.414;9.118;2023-07-20T06:51:04;20.70;78.20
1155;DHT22;566;48.414;9.118;2023-07-20T06:53:30;20.80;78.70
1155;DHT22;566;48.414;9.118;2023-07-20T06:55:56;20.80;77.80
1155;DHT22;566;48.414;9.118;2023-07-20T06:58:25;20.90;77.30
1155;DHT22;566;48.414;9.118;2023-07-20T07:00:51;20.90;77.30
1155;DHT22;566;48.414;9.118;2023-07-20T07:03:17;21.00;76.70
1155;DHT22;566;48.414;9.118;2023-07-20T07:05:43;21.10;77.20
1155;DHT22;566;48.414;9.118;2023-07-20T07:08:10;21.50;75.80
1155;DHT22;566;48.414;9.118;2023-07-20T07:10:36;21.80;74.90
1155;DHT22;566;48.414;9.118;2023-07-20T07:13:02;21.30;76.00
1155;DHT22;566;48.414;9.118;2023-07-20T07:15:28;21.50;75.80
1155;DHT22;566;48.414;9.118;2023-07-20T07:17:54;21.50;75.60
1155;DHT22;566;48.414;9.118;2023-07-20T07:20:20;20.90;76.70
1155;DHT22;566;48.414;9.118;2023-07-20T07:22:46;21.10;77.60
1155;DHT22;566;48.414;9.118;2023-07-20T07:25:12;21.50;76.30
1155;DHT22;566;48.414;9.118;2023-07-20T07:27:38;21.80;75.40
1155;DHT22;566;48.414;9.118;2023-07-20T07:30:04;21.70;76.10
1155;DHT22;566;48.414;9.118;2023-07-20T07:32:30;21.70;74.90
1155;DHT22;566;48.414;9.118;2023-07-20T07:34:56;21.60;75.50
1155;DHT22;566;48.414;9.118;2023-07-20T07:37:23;21.60;76.00
1155;DHT22;566;48.414;9.118;2023-07-20T07:39:51;21.40;76.30
1155;DHT22;566;48.414;9.118;2023-07-20T07:42:17;21.60;76.40
1155;DHT22;566;48.414;9.118;2023-07-20T07:44:52;21.90;75.60
1155;DHT22;566;48.414;9.118;2023-07-20T07:47:18;21.90;74.60
1155;DHT22;566;48.414;9.118;2023-07-20T07:49:49;22.20;75.30
1155;DHT22;566;48.414;9.118;2023-07-20T07:52:22;23.00;73.50
1155;DHT22;566;48.414;9.118;2023-07-20T07:54:53;23.40;71.60
1155;DHT22;566;48.414;9.118;2023-07-20T07:57:24;23.30;72.00
1155;DHT22;566;48.414;9.118;2023-07-20T08:00:05;23.10;72.00
1155;DHT22;566;48.414;9.118;2023-07-20T08:06:31;23.40;72.10
1155;DHT22;566;48.414;9.118;2023-07-20T08:08:56;23.20;71.40
1155;DHT22;566;48.414;9.118;2023-07-20T08:11:24;23.30;71.70
1155;DHT22;566;48.414;9.118;2023-07-20T08:13:49;23.60;72.10
1155;DHT22;566;48.414;9.118;2023-07-20T08:16:15;23.60;69.80
1155;DHT22;566;48.414;9.118;2023-07-20T08:18:41;23.50;72.00
1155;DHT22;566;48.414;9.118;2023-07-20T08:21:06;23.50;69.80
1155;DHT22;566;48.414;9.118;2023-07-20T08:23:35;23.40;69.50
1155;DHT22;566;48.414;9.118;2023-07-20T08:26:01;23.80;69.20
1155;DHT22;566;48.414;9.118;2023-07-20T08:28:26;23.30;69.20
1155;DHT22;566;48.414;9.118;2023-07-20T08:30:52;23.00;71.10
1155;DHT22;566;48.414;9.118;2023-07-20T08:33:19;22.50;71.10
1155;DHT22;566;48.414;9.118;2023-07-20T08:35:45;21.90;72.20
1155;DHT22;566;48.414;9.118;2023-07-20T08:38:11;21.50;72.90
1155;DHT22;566;48.414;9.118;2023-07-20T08:40:42;21.10;74.70
1155;DHT22;566;48.414;9.118;2023-07-20T08:43:12;21.30;74.40
1155;DHT22;566;48.414;9.118;2023-07-20T08:45:39;21.80;75.00
1155;DHT22;566;48.414;9.118;2023-07-20T08:48:06;22.10;73.80
1155;DHT22;566;48.414;9.118;2023-07-20T08:50:32;22.20;72.80
1155;DHT22;566;48.414;9.118;2023-07-20T08:52:59;22.50;72.20
1155;DHT22;566;48.414;9.118;2023-07-20T08:55:28;22.60;73.00
1155;DHT22;566;48.414;9.118;2023-07-20T08:57:58;23.00;72.80
1155;DHT22;566;48.414;9.118;2023-07-20T09:00:25;23.80;70.20
1155;DHT22;566;48.414;9.118;2023-07-20T09:02:55;24.20;69.10
1155;DHT22;566;48.414;9.118;2023-07-20T09:05:23;23.60;68.90
1155;DHT22;566;48.414;9.118;2023-07-20T09:07:49;23.90;68.70
1155;DHT22;566;48.414;9.118;2023-07-20T09:10:15;24.30;68.50
1155;DHT22;566;48.414;9.118;2023-07-20T09:12:44;24.50;66.90
1155;DHT22;566;48.414;9.118;2023-07-20T09:15:10;24.80;66.30
1155;DHT22;566;48.414;9.118;2023-07-20T09:17:37;24.50;66.30
1155;DHT22;566;48.414;9.118;2023-07-20T09:20:06;24.90;65.40
1155;DHT22;566;48.414;9.118;2023-07-20T09:22:33;24.90;64.40
1155;DHT22;566;48.414;9.118;2023-07-20T09:24:59;25.10;64.80
1155;DHT22;566;48.414;9.118;2023-07-20T09:27:38;25.20;64.90
1155;DHT22;566;48.414;9.118;2023-07-20T09:30:05;24.90;66.30
1155;DHT22;566;48.414;9.118;2023-07-20T09:32:45;24.60;66.90
1155;DHT22;566;48.414;9.118;2023-07-20T09:35:18;25.00;64.80
1155;DHT22;566;48.414;9.118;2023-07-20T09:38:00;24.90;65.80
1155;DHT22;566;48.414;9.118;2023-07-20T09:40:28;24.10;67.10
1155;DHT22;566;48.414;9.118;2023-07-20T09:42:55;24.30;67.10
1155;DHT22;566;48.414;9.118;2023-07-20T09:45:39;25.20;66.60
1155;DHT22;566;48.414;9.118;2023-07-20T09:48:06;26.00;64.50
1155;DHT22;566;48.414;9.118;2023-07-20T09:50:41;26.00;63.00
1155;DHT22;566;48.414;9.118;2023-07-20T09:53:11;25.50;63.80
1155;DHT22;566;48.414;9.118;2023-07-20T09:55:41;24.80;63.00
1155;DHT22;566;48.414;9.118;2023-07-20T09:58:09;24.00;63.10
1155;DHT22;566;48.414;9.118;2023-07-20T10:00:37;23.40;63.40
1155;DHT22;566;48.414;9.118;2023-07-20T10:03:05;23.50;64.40
1155;DHT22;566;48.414;9.118;2023-07-20T10:05:35;23.70;63.80
1155;DHT22;566;48.414;9.118;2023-07-20T10:08:02;24.00;64.00
1155;DHT22;566;48.414;9.118;2023-07-20T10:10:31;24.10;63.20
1155;DHT22;566;48.414;9.118;2023-07-20T10:12:57;25.50;61.50
1155;DHT22;566;48.414;9.118;2023-07-20T10:15:33;26.10;59.90
1155;DHT22;566;48.414;9.118;2023-07-20T10:18:12;26.50;58.50
1155;DHT22;566;48.414;9.118;2023-07-20T10:20:40;26.70;60.10
1155;DHT22;566;48.414;9.118;2023-07-20T10:23:09;26.80;61.50
1155;DHT22;566;48.414;9.118;2023-07-20T10:25:35;27.10;59.80
1155;DHT22;566;48.414;9.118;2023-07-20T10:28:06;26.30;59.20
1155;DHT22;566;48.414;9.118;2023-07-20T10:30:34;25.80;60.50
1155;DHT22;566;48.414;9.118;2023-07-20T10:33:01;24.90;62.40
1155;DHT22;566;48.414;9.118;2023-07-20T10:35:28;24.20;63.70
1155;DHT22;566;48.414;9.118;2023-07-20T10:37:55;23.50;64.20
1155;DHT22;566;48.414;9.118;2023-07-20T10:45:35;23.40;65.90
1155;DHT22;566;48.414;9.118;2023-07-20T10:48:20;24.50;63.80
1155;DHT22;566;48.414;9.118;2023-07-20T10:51:12;25.20;62.40
1155;DHT22;566;48.414;9.118;2023-07-20T10:53:42;26.10;59.80
1155;DHT22;566;48.414;9.118;2023-07-20T10:56:15;25.10;59.80
1155;DHT22;566;48.414;9.118;2023-07-20T10:58:44;25.10;61.50
1155;DHT22;566;48.414;9.118;2023-07-20T11:01:14;25.20;60.30
1155;DHT22;566;48.414;9.118;2023-07-20T11:03:40;24.80;60.30
1155;DHT22;566;48.414;9.118;2023-07-20T11:08:56;25.80;60.20
1155;DHT22;566;48.414;9.118;2023-07-20T11:11:33;26.40;59.20
1155;DHT22;566;48.414;9.118;2023-07-20T11:14:07;26.60;58.00
1155;DHT22;566;48.414;9.118;2023-07-20T11:16:34;26.80;57.90
1155;DHT22;566;48.414;9.118;2023-07-20T11:19:00;26.20;57.90
1155;DHT22;566;48.414;9.118;2023-07-20T11:21:26;26.00;59.40
1155;DHT22;566;48.414;9.118;2023-07-20T11:23:55;26.10;58.60
1155;DHT22;566;48.414;9.118;2023-07-20T11:26:21;25.30;59.70
1155;DHT22;566;48.414;9.118;2023-07-20T11:28:50;25.30;59.90
1155;DHT22;566;48.414;9.118;2023-07-20T11:31:18;25.60;59.70
1155;DHT22;566;48.414;9.118;2023-07-20T11:33:43;26.00;58.20
1155;DHT22;566;48.414;9.118;2023-07-20T11:36:09;25.80;59.00
1155;DHT22;566;48.414;9.118;2023-07-20T11:38:35;26.30;57.80
1155;DHT22;566;48.414;9.118;2023-07-20T11:41:03;26.90;58.10
1155;DHT22;566;48.414;9.118;2023-07-20T11:43:29;27.40;57.60
1155;DHT22;566;48.414;9.118;2023-07-20T11:45:55;26.70;56.60
1155;DHT22;566;48.414;9.118;2023-07-20T11:48:21;25.70;57.20
1155;DHT22;566;48.414;9.118;2023-07-20T11:50:47;25.50;59.00
1155;DHT22;566;48.414;9.118;2023-07-20T11:53:13;25.90;58.40
1155;DHT22;566;48.414;9.118;2023-07-20T11:55:42;25.70;58.60
1155;DHT22;566;48.414;9.118;2023-07-20T11:58:09;25.60;61.00
1155;DHT22;566;48.414;9.118;2023-07-20T12:00:37;26.00;58.00
1155;DHT22;566;48.414;9.118;2023-07-20T12:03:06;26.50;57.70
1155;DHT22;566;48.414;9.118;2023-07-20T12:05:37;27.40;57.10
1155;DHT22;566;48.414;9.118;2023-07-20T12:08:03;28.10;56.00
1155;DHT22;566;48.414;9.118;2023-07-20T12:10:29;28.40;54.80
1155;DHT22;566;48.414;9.118;2023-07-20T12:13:01;28.20;55.30
1155;DHT22;566;48.414;9.118;2023-07-20T12:15:28;27.90;55.20
1155;DHT22;566;48.414;9.118;2023-07-20T12:18:02;27.20;56.30
1155;DHT22;566;48.414;9.118;2023-07-20T12:20:32;27.20;57.10
1155;DHT22;566;48.414;9.118;2023-07-20T12:23:01;27.10;56.30
1155;DHT22;566;48.414;9.118;2023-07-20T12:25:36;27.60;55.60
1155;DHT22;566;48.414;9.118;2023-07-20T12:28:04;28.40;53.80
1155;DHT22;566;48.414;9.118;2023-07-20T12:30:29;29.10;53.40
1155;DHT22;566;48.414;9.118;2023-07-20T12:32:55;28.90;53.10
1155;DHT22;566;48.414;9.118;2023-07-20T12:35:21;28.80;54.70
1155;DHT22;566;48.414;9.118;2023-07-20T12:37:46;29.30;53.50
1155;DHT22;566;48.414;9.118;2023-07-20T12:40:14;28.50;53.00
1155;DHT22;566;48.414;9.118;2023-07-20T12:42:40;28.30;53.10
1155;DHT22;566;48.414;9.118;2023-07-20T12:45:06;26.90;54.90
1155;DHT22;566;48.414;9.118;2023-07-20T12:47:31;26.70;56.30
1155;DHT22;566;48.414;9.118;2023-07-20T12:49:57;27.70;54.70
1155;DHT22;566;48.414;9.118;2023-07-20T12:52:25;28.30;54.90
1155;DHT22;566;48.414;9.118;2023-07-20T12:54:51;29.30;52.50
1155;DHT22;566;48.414;9.118;2023-07-20T12:57:16;29.40;52.80
1155;DHT22;566;48.414;9.118;2023-07-20T12:59:42;29.70;52.80
1155;DHT22;566;48.414;9.118;2023-07-20T13:02:08;30.10;51.90
1155;DHT22;566;48.414;9.118;2023-07-20T13:04:33;29.80;51.40
1155;DHT22;566;48.414;9.118;2023-07-20T13:06:59;30.40;50.40
1155;DHT22;566;48.414;9.118;2023-07-20T13:09:25;30.10;51.40
1155;DHT22;566;48.414;9.118;2023-07-20T13:11:51;30.00;50.70
1155;DHT22;566;48.414;9.118;2023-07-20T13:14:18;31.10;50.30
1155;DHT22;566;48.414;9.118;2023-07-20T13:16:43;31.80;50.10
1155;DHT22;566;48.414;9.118;2023-07-20T13:19:09;31.80;49.80
1155;DHT22;566;48.414;9.118;2023-07-20T13:21:34;31.70;49.30
1155;DHT22;566;48.414;9.118;2023-07-20T13:24:00;30.80;50.30
1155;DHT22;566;48.414;9.118;2023-07-20T13:26:25;30.80;50.60
1155;DHT22;566;48.414;9.118;2023-07-20T13:28:51;30.90;49.60
1155;DHT22;566;48.414;9.118;2023-07-20T13:31:17;31.30;49.90
1155;DHT22;566;48.414;9.118;2023-07-20T13:33:43;31.40;49.90
1155;DHT22;566;48.414;9.118;2023-07-20T13:36:09;31.40;48.30
1155;DHT22;566;48.414;9.118;2023-07-20T13:38:34;31.30;47.90
1155;DHT22;566;48.414;9.118;2023-07-20T13:41:00;31.60;48.70
1155;DHT22;566;48.414;9.118;2023-07-20T13:43:25;31.10;47.90
1155;DHT22;566;48.414;9.118;2023-07-20T13:45:52;30.70;48.50
1155;DHT22;566;48.414;9.118;2023-07-20T13:48:18;30.60;49.90
1155;DHT22;566;48.414;9.118;2023-07-20T13:50:46;30.90;50.10
1155;DHT22;566;48.414;9.118;2023-07-20T13:53:11;30.80;49.50
1155;DHT22;566;48.414;9.118;2023-07-20T13:55:38;30.90;49.30
1155;DHT22;566;48.414;9.118;2023-07-20T13:58:04;31.20;48.50
1155;DHT22;566;48.414;9.118;2023-07-20T14:00:32;30.70;48.10
1155;DHT22;566;48.414;9.118;2023-07-20T14:03:01;31.40;48.50
1155;DHT22;566;48.414;9.118;2023-07-20T14:05:27;31.60;47.70
1155;DHT22;566;48.414;9.118;2023-07-20T14:07:53;30.10;49.10
1155;DHT22;566;48.414;9.118;2023-07-20T14:10:19;28.60;51.10
1155;DHT22;566;48.414;9.118;2023-07-20T14:12:45;27.60;51.40
1155;DHT22;566;48.414;9.118;2023-07-20T14:15:11;28.50;52.40
1155;DHT22;566;48.414;9.118;2023-07-20T14:17:36;28.10;52.80
1155;DHT22;566;48.414;9.118;2023-07-20T14:20:03;28.90;51.30
1155;DHT22;566;48.414;9.118;2023-07-20T14:22:32;30.50;48.80
1155;DHT22;566;48.414;9.118;2023-07-20T14:24:57;32.20;46.40
1155;DHT22;566;48.414;9.118;2023-07-20T14:27:24;32.80;46.40
1155;DHT22;566;48.414;9.118;2023-07-20T14:29:49;32.50;47.70
1155;DHT22;566;48.414;9.118;2023-07-20T14:32:15;33.20;45.20
1155;DHT22;566;48.414;9.118;2023-07-20T14:34:41;32.70;45.90
1155;DHT22;566;48.414;9.118;2023-07-20T14:37:06;31.30;48.00
1155;DHT22;566;48.414;9.118;2023-07-20T14:39:32;31.20;47.40
1155;DHT22;566;48.414;9.118;2023-07-20T14:41:58;31.80;47.80
1155;DHT22;566;48.414;9.118;2023-07-20T14:44:24;31.90;47.20
1155;DHT22;566;48.414;9.118;2023-07-20T14:46:50;33.00;46.60
1155;DHT22;566;48.414;9.118;2023-07-20T14:49:16;33.70;44.00
1155;DHT22;566;48.414;9.118;2023-07-20T14:51:42;33.70;45.40
1155;DHT22;566;48.414;9.118;2023-07-20T14:54:12;34.30;44.20
1155;DHT22;566;48.414;9.118;2023-07-20T14:56:39;34.90;43.90
1155;DHT22;566;48.414;9.118;2023-07-20T14:59:05;33.60;44.30
1155;DHT22;566;48.414;9.118;2023-07-20T15:01:32;33.20;45.20
1155;DHT22;566;48.414;9.118;2023-07-20T15:03:57;32.70;45.50
1155;DHT22;566;48.414;9.118;2023-07-20T15:06:25;31.60;46.90
1155;DHT22;566;48.414;9.118;2023-07-20T15:08:51;30.50;47.30
1155;DHT22;566;48.414;9.118;2023-07-20T15:11:17;29.80;48.30
1155;DHT22;566;48.414;9.118;2023-07-20T15:13:43;30.30;48.70
1155;DHT22;566;48.414;9.118;2023-07-20T15:16:09;31.50;48.10
1155;DHT22;566;48.414;9.118;2023-07-20T15:18:36;33.20;45.50
1155;DHT22;566;48.414;9.118;2023-07-20T15:21:02;34.00;43.70
1155;DHT22;566;48.414;9.118;2023-07-20T15:23:27;33.40;44.50
1155;DHT22;566;48.414;9.118;2023-07-20T15:25:53;32.10;46.10
1155;DHT22;566;48.414;9.118;2023-07-20T15:28:19;32.00;46.30
1155;DHT22;566;48.414;9.118;2023-07-20T15:30:44;32.60;45.90
1155;DHT22;566;48.414;9.118;2023-07-20T15:33:10;33.10;44.70
1155;DHT22;566;48.414;9.118;2023-07-20T15:35:36;33.60;44.80
1155;DHT22;566;48.414;9.118;2023-07-20T15:38:02;33.60;44.10
1155;DHT22;566;48.414;9.118;2023-07-20T15:40:27;33.20;44.60
1155;DHT22;566;48.414;9.118;2023-07-20T15:42:53;32.90;46.30
1155;DHT22;566;48.414;9.118;2023-07-20T15:45:18;32.30;46.00
1155;DHT22;566;48.414;9.118;2023-07-20T15:47:44;31.70;47.50
1155;DHT22;566;48.414;9.118;2023-07-20T15:50:11;32.10;46.10
1155;DHT22;566;48.414;9.118;2023-07-20T15:52:36;32.60;46.70
1155;DHT22;566;48.414;9.118;2023-07-20T15:55:02;32.60;45.50
1155;DHT22;566;48.414;9.118;2023-07-20T15:57:29;32.10;46.30
1155;DHT22;566;48.414;9.118;2023-07-20T15:59:55;31.60;47.20
1155;DHT22;566;48.414;9.118;2023-07-20T16:02:21;31.40;47.70
1155;DHT22;566;48.414;9.118;2023-07-20T16:04:46;31.00;47.00
1155;DHT22;566;48.414;9.118;2023-07-20T16:07:12;31.30;48.20
1155;DHT22;566;48.414;9.118;2023-07-20T16:09:37;32.20;46.40
1155;DHT22;566;48.414;9.118;2023-07-20T16:12:05;32.60;46.10
1155;DHT22;566;48.414;9.118;2023-07-20T16:14:30;32.30;45.90
1155;DHT22;566;48.414;9.118;2023-07-20T16:16:56;32.80;46.50
1155;DHT22;566;48.414;9.118;2023-07-20T16:19:22;32.40;47.10
1155;DHT22;566;48.414;9.118;2023-07-20T16:21:47;32.10;46.70
1155;DHT22;566;48.414;9.118;2023-07-20T16:24:13;32.00;48.80
1155;DHT22;566;48.414;9.118;2023-07-20T16:26:38;33.00;46.80
1155;DHT22;566;48.414;9.118;2023-07-20T16:29:09;33.70;45.60
1155;DHT22;566;48.414;9.118;2023-07-20T16:31:35;33.40;45.00
1155;DHT22;566;48.414;9.118;2023-07-20T16:34:00;33.10;46.10
1155;DHT22;566;48.414;9.118;2023-07-20T16:36:26;32.30;47.10